Terminal Aerodrome Forecast
Issued by NWS

Home | Current Version | Previous Version | Text Only | Print | Product List | Glossary On
Versions: 1 2 3 4 5 6 7 8 9 10 11 12 13 14 15 16 17
000
FTUS41 KBOX 302334 AAA
TAFBAF
TAF AMD
KBAF 302334Z 0100/0124 VRB03KT P6SM OVC040
     FM010100 15006KT P6SM OVC035
     FM010700 14005KT P6SM -DZ OVC015
     FM010900 13004KT P6SM -DZ VCSH OVC008
     FM011100 13004KT P6SM -DZ OVC008
     FM011300 13004KT P6SM OVC008
     FM011800 18006KT P6SM BKN050=

USA.gov is the U.S. government's official web portal to all federal, state and local government web resources and services.